| time (UTC) | temp C | wind direction | speed KPH | gust KPH | rain 1hr cm | rain 24hr cm | rain mn cm | humidity % | barometer mb |
| 20260506030526 | 11 | 27 | 11.3 | 27.4 | 0.30 | 0.53 | 0.00 | 90 | 1005.9 |
| 20260506025527 | 11 | 19 | 11.3 | 27.4 | 0.28 | 0.48 | 0.00 | 90 | 1005.9 |
| 20260506024529 | 11 | 36 | 14.5 | 27.4 | 0.25 | 0.43 | 0.00 | 90 | 1005.9 |
| 20260506023526 | 11 | 43 | 12.9 | 30.6 | 0.23 | 0.38 | 0.00 | 90 | 1005.9 |
| 20260506022526 | 11 | 32 | 12.9 | 27.4 | 0.20 | 0.33 | 0.00 | 89 | 1005.9 |
| 20260506021528 | 11 | 53 | 17.7 | 27.4 | 0.18 | 0.28 | 0.00 | 89 | 1005.9 |
| 20260506020526 | 12 | 49 | 17.7 | 22.5 | 0.15 | 0.23 | 0.00 | 89 | 1006.6 |
| 20260506015529 | 12 | 51 | 17.7 | 20.9 | 0.13 | 0.20 | 0.00 | 89 | 1006.6 |
| 20260506014529 | 12 | 55 | 17.7 | 20.9 | 0.10 | 0.18 | 0.00 | 89 | 1006.6 |
| 20260506013527 | 12 | 64 | 17.7 | 19.3 | 0.08 | 0.15 | 0.00 | 89 | 1006.6 |
| 20260506012528 | 12 | 54 | 16.1 | 22.5 | 0.08 | 0.13 | 0.00 | 89 | 1006.6 |
| 20260506011529 | 12 | 54 | 12.9 | 20.9 | 0.05 | 0.10 | 0.00 | 88 | 1006.6 |
| 20260506010527 | 12 | 51 | 12.9 | 19.3 | 0.03 | 0.10 | 0.00 | 88 | 1007.1 |
| 20260506005525 | 12 | 65 | 16.1 | 20.9 | 0.03 | 0.08 | 0.00 | 88 | 1007.1 |
| 20260506004529 | 12 | 47 | 9.7 | 19.3 | 0.03 | 0.08 | 0.00 | 87 | 1007.1 |
| 20260506003527 | 12 | 43 | 9.7 | 22.5 | 0.03 | 0.08 | 0.00 | 87 | 1007.1 |
| 20260506002526 | 12 | 49 | 11.3 | 22.5 | 0.03 | 0.08 | 0.00 | 87 | 1007.1 |
| 20260506001529 | 12 | 38 | 12.9 | 22.5 | 0.03 | 0.08 | 0.00 | 87 | 1007.1 |
| 20260506000527 | 12 | 31 | 14.5 | 25.7 | 0.00 | 0.05 | 0.00 | 86 | 1007.5 |
| 20260505234528 | 12 | 59 | 16.1 | 25.7 | 0.00 | 0.05 | 0.00 | 86 | 1007.5 |
| 20260505233527 | 12 | 40 | 16.1 | 22.5 | 0.00 | 0.05 | 0.00 | 85 | 1007.5 |
| 20260505232527 | 12 | 41 | 16.1 | 24.1 | 0.00 | 0.05 | 0.00 | 85 | 1007.5 |
| 20260505231527 | 13 | 34 | 12.9 | 24.1 | 0.00 | 0.05 | 0.00 | 84 | 1007.5 |
| 20260505230527 | 13 | 25 | 14.5 | 27.4 | 0.00 | 0.05 | 0.00 | 83 | 1007.7 |
| 20260505225527 | 13 | 29 | 12.9 | 29.0 | 0.00 | 0.05 | 0.00 | 83 | 1007.7 |
| 20260505224530 | 13 | 37 | 19.3 | 22.5 | 0.00 | 0.05 | 0.00 | 83 | 1007.7 |
| 20260505223526 | 13 | 41 | 22.5 | 24.1 | 0.00 | 0.05 | 0.00 | 82 | 1007.7 |
| 20260505222527 | 13 | 48 | 17.7 | 27.4 | 0.00 | 0.05 | 0.00 | 82 | 1007.7 |
| 20260505221529 | 13 | 30 | 19.3 | 27.4 | 0.00 | 0.05 | 0.00 | 82 | 1007.7 |
| 20260505220527 | 13 | 39 | 14.5 | 22.5 | 0.00 | 0.05 | 0.00 | 81 | 1007.9 |
| 20260505215528 | 13 | 43 | 19.3 | 25.7 | 0.00 | 0.05 | 0.00 | 81 | 1007.9 |
| 20260505214530 | 13 | 20 | 19.3 | 27.4 | 0.00 | 0.05 | 0.00 | 81 | 1007.9 |
| 20260505213527 | 13 | 24 | 17.7 | 22.5 | 0.00 | 0.05 | 0.00 | 81 | 1007.9 |
| 20260505212526 | 13 | 14 | 17.7 | 24.1 | 0.00 | 0.05 | 0.00 | 81 | 1007.9 |
| 20260505210528 | 14 | 18 | 19.3 | 24.1 | 0.00 | 0.05 | 0.00 | 80 | 1007.6 |
| 20260505205528 | 14 | 28 | 19.3 | 22.5 | 0.00 | 0.05 | 0.00 | 80 | 1007.6 |
| 20260505204529 | 14 | 11 | 14.5 | 20.9 | 0.00 | 0.05 | 0.00 | 80 | 1007.6 |
| 20260505203526 | 14 | 21 | 16.1 | 20.9 | 0.00 | 0.05 | 0.00 | 80 | 1007.6 |
| 20260505202528 | 15 | 12 | 14.5 | 20.9 | 0.00 | 0.05 | 0.00 | 79 | 1007.6 |
| 20260505201529 | 15 | 34 | 11.3 | 25.7 | 0.00 | 0.05 | 0.00 | 79 | 1007.6 |
| 20260505200528 | 15 | 40 | 12.9 | 20.9 | 0.00 | 0.05 | 0.00 | 78 | 1007.5 |
| 20260505195527 | 15 | 39 | 12.9 | 22.5 | 0.00 | 0.05 | 0.00 | 78 | 1007.5 |
| 20260505194531 | 15 | 40 | 12.9 | 22.5 | 0.00 | 0.05 | 0.00 | 78 | 1007.5 |
| 20260505193526 | 15 | 44 | 14.5 | 20.9 | 0.00 | 0.05 | 0.00 | 77 | 1007.5 |
| 20260505192526 | 15 | 35 | 12.9 | 20.9 | 0.00 | 0.05 | 0.00 | 77 | 1007.5 |
| 20260505190528 | 16 | 30 | 14.5 | 17.7 | 0.00 | 0.05 | 0.00 | 75 | 1007.5 |
| 20260505185527 | 16 | 34 | 16.1 | 20.9 | 0.00 | 0.05 | 0.00 | 75 | 1007.5 |
| 20260505183526 | 17 | 40 | 9.7 | 19.3 | 0.00 | 0.05 | 0.00 | 74 | 1007.5 |
| 20260505182527 | 17 | 40 | 14.5 | 20.9 | 0.03 | 0.05 | 0.00 | 73 | 1007.5 |
| 20260505181531 | 17 | 71 | 12.9 | 20.9 | 0.03 | 0.05 | 0.00 | 73 | 1007.5 |
| 20260505180527 | 17 | 74 | 14.5 | 20.9 | 0.03 | 0.05 | 0.00 | 72 | 1007.7 |
| 20260505175528 | 17 | 76 | 12.9 | 19.3 | 0.03 | 0.05 | 0.00 | 71 | 1007.7 |
| 20260505174529 | 18 | 70 | 9.7 | 19.3 | 0.03 | 0.05 | 0.00 | 71 | 1007.7 |
| 20260505173526 | 18 | 66 | 12.9 | 20.9 | 0.00 | 0.05 | 0.00 | 70 | 1007.7 |
| 20260505172529 | 18 | 69 | 9.7 | 22.5 | 0.00 | 0.03 | 0.00 | 70 | 1007.7 |
| 20260505171529 | 18 | 44 | 9.7 | 20.9 | 0.00 | 0.03 | 0.00 | 70 | 1007.7 |
| 20260505170527 | 18 | 54 | 11.3 | 16.1 | 0.00 | 0.03 | 0.00 | 69 | 1007.9 |
| 20260505164530 | 19 | 39 | 12.9 | 12.9 | 0.00 | 0.03 | 0.00 | 68 | 1007.9 |
| 20260505162526 | 19 | 33 | 16.1 | 19.3 | 0.00 | 0.03 | 0.00 | 68 | 1007.9 |
| 20260505161529 | 19 | 49 | 9.7 | 14.5 | 0.00 | 0.03 | 0.00 | 68 | 1007.9 |
| 20260505160527 | 20 | 44 | 6.4 | 16.1 | 0.00 | 0.03 | 0.00 | 67 | 1008.1 |
| 20260505152528 | 20 | 60 | 6.4 | 16.1 | 0.00 | 0.03 | 0.00 | 66 | 1008.1 |
| 20260505150527 | 20 | 61 | 9.7 | 17.7 | 0.00 | 0.03 | 0.00 | 66 | 1008.3 |
| 20260505140528 | 22 | 87 | 9.7 | 14.5 | 0.00 | 0.03 | 0.00 | 63 | 1008.7 |
| 20260505124530 | 20 | 160 | 4.8 | 12.9 | 0.00 | 0.03 | 0.00 | 69 | 1009.1 |
| 20260505123528 | 20 | 154 | 9.7 | 11.3 | 0.00 | 0.03 | 0.00 | 70 | 1009.1 |
| 20260505122527 | 19 | 147 | 8.0 | 11.3 | 0.00 | 0.03 | 0.00 | 71 | 1009.1 |
| 20260505121530 | 19 | 163 | 3.2 | 12.9 | 0.00 | 0.03 | 0.00 | 71 | 1009.1 |
| 20260505120528 | 19 | 157 | 6.4 | 9.7 | 0.00 | 0.03 | 0.00 | 71 | 1009.4 |
| 20260505115528 | 19 | 164 | 6.4 | 9.7 | 0.00 | 0.03 | 0.00 | 71 | 1009.4 |
| 20260505114529 | 18 | 156 | 3.2 | 8.0 | 0.00 | 0.03 | 0.00 | 72 | 1009.4 |
| 20260505113526 | 18 | 143 | 4.8 | 9.7 | 0.00 | 0.03 | 0.00 | 73 | 1009.4 |
| 20260505112527 | 18 | 140 | 4.8 | 9.7 | 0.00 | 0.03 | 0.00 | 73 | 1009.4 |
| 20260505111529 | 18 | 145 | 3.2 | 9.7 | 0.00 | 0.03 | 0.00 | 73 | 1009.4 |
| 20260505110529 | 18 | 150 | 3.2 | 12.9 | 0.00 | 0.03 | 0.00 | 74 | 1009.6 |
| 20260505101528 | 17 | 94 | 0.0 | 11.3 | 0.00 | 0.03 | 0.00 | 77 | 1009.6 |
| 20260505100528 | 17 | 48 | 1.6 | 12.9 | 0.00 | 0.03 | 0.00 | 77 | 1009.7 |
| 20260505095527 | 17 | 49 | 0.0 | 12.9 | 0.00 | 0.03 | 0.00 | 78 | 1009.7 |
| 20260505093528 | 16 | 97 | 1.6 | 12.9 | 0.00 | 0.03 | 0.00 | 78 | 1009.7 |
| 20260505092527 | 16 | 96 | 3.2 | 11.3 | 0.00 | 0.03 | 0.00 | 78 | 1009.7 |
| 20260505091531 | 16 | 35 | 3.2 | 11.3 | 0.00 | 0.03 | 0.00 | 78 | 1009.7 |
| 20260505090527 | 16 | 21 | 6.4 | 16.1 | 0.00 | 0.03 | 0.00 | 78 | 1010.0 |
| 20260505085527 | 16 | 40 | 4.8 | 16.1 | 0.00 | 0.03 | 0.00 | 78 | 1010.0 |
| 20260505084530 | 16 | 67 | 6.4 | 16.1 | 0.00 | 0.03 | 0.00 | 78 | 1010.0 |
| 20260505082527 | 16 | 55 | 8.0 | 17.7 | 0.00 | 0.03 | 0.00 | 78 | 1010.0 |
| 20260505081529 | 16 | 54 | 9.7 | 17.7 | 0.00 | 0.03 | 0.00 | 78 | 1010.0 |
| 20260505080528 | 15 | 57 | 9.7 | 19.3 | 0.00 | 0.03 | 0.00 | 78 | 1009.9 |
| 20260505074530 | 15 | 60 | 8.0 | 19.3 | 0.00 | 0.03 | 0.00 | 78 | 1009.9 |
| 20260505073526 | 15 | 73 | 11.3 | 19.3 | 0.00 | 0.03 | 0.00 | 77 | 1009.9 |
| 20260505071530 | 15 | 54 | 14.5 | 17.7 | 0.03 | 0.03 | 0.00 | 78 | 1009.9 |
| 20260505070527 | 15 | 68 | 14.5 | 16.1 | 0.03 | 0.03 | 0.00 | 78 | 1010.2 |
| 20260505065527 | 15 | 59 | 12.9 | 16.1 | 0.03 | 0.03 | 0.00 | 78 | 1010.2 |
| 20260505064530 | 15 | 47 | 12.9 | 14.5 | 0.03 | 0.03 | 0.00 | 78 | 1010.2 |
| 20260505063527 | 15 | 52 | 12.9 | 14.5 | 0.00 | 0.00 | 0.00 | 78 | 1010.2 |
| 20260505062527 | 15 | 55 | 11.3 | 16.1 | 0.00 | 0.00 | 0.00 | 78 | 1010.2 |
| 20260505061529 | 15 | 31 | 9.7 | 17.7 | 0.00 | 0.00 | 0.00 | 78 | 1010.2 |
| 20260505055527 | 14 | 30 | 11.3 | 16.1 | 0.00 | 0.00 | 0.00 | 78 | 1010.3 |
| 20260505054530 | 14 | 40 | 12.9 | 16.1 | 0.00 | 0.00 | 0.00 | 78 | 1010.3 |
| 20260505053527 | 14 | 21 | 9.7 | 17.7 | 0.00 | 0.00 | 0.00 | 78 | 1010.3 |
| 20260505051530 | 14 | 28 | 9.7 | 17.7 | 0.00 | 0.00 | 0.00 | 78 | 1010.3 |
| 20260505050528 | 14 | 25 | 8.0 | 11.3 | 0.00 | 0.00 | 0.00 | 78 | 1010.4 |
| 20260505041529 | 14 | 9 | 9.7 | 11.3 | 0.00 | 0.00 | 0.00 | 77 | 1010.4 |
| 20260505040527 | 15 | 5 | 9.7 | 11.3 | 0.00 | 0.00 | 0.00 | 76 | 1010.7 |
| 20260505035527 | 15 | 359 | 8.0 | 11.3 | 0.00 | 0.00 | 0.00 | 75 | 1010.7 |
| 20260505034529 | 15 | 4 | 6.4 | 11.3 | 0.00 | 0.00 | 0.00 | 75 | 1010.7 |
| 20260505033526 | 15 | 9 | 6.4 | 11.3 | 0.00 | 0.00 | 0.00 | 75 | 1010.7 |
| 20260505032528 | 15 | 13 | 4.8 | 14.5 | 0.00 | 0.00 | 0.00 | 74 | 1010.7 |
| 20260505031529 | 15 | 332 | 4.8 | 12.9 | 0.00 | 0.00 | 0.00 | 74 | 1010.7 |